createdAt,value
2022-09-24T00:01:19.460Z,26.17
2022-09-24T00:03:51.132Z,24.30
2022-09-24T00:06:21.405Z,26.55
2022-09-24T00:08:50.353Z,27.80
2022-09-24T00:11:18.548Z,29.17
2022-09-24T00:13:45.282Z,28.08
2022-09-24T00:16:13.347Z,29.50
2022-09-24T00:18:40.264Z,28.80
2022-09-24T00:21:17.189Z,27.60
2022-09-24T00:23:43.867Z,28.40
2022-09-24T00:26:30.694Z,27.65
2022-09-24T00:28:58.221Z,24.98
2022-09-24T00:31:25.182Z,26.10
2022-09-24T00:33:52.172Z,25.98
2022-09-24T00:36:20.478Z,28.00
2022-09-24T00:38:54.733Z,25.42
2022-09-24T00:41:24.129Z,28.02
2022-09-24T00:43:51.135Z,25.30
2022-09-24T00:46:28.123Z,26.38
2022-09-24T00:48:58.508Z,27.60
2022-09-24T00:51:26.977Z,28.58
2022-09-24T00:54:00.461Z,26.80
2022-09-24T00:56:28.965Z,28.23
2022-09-24T00:58:56.893Z,27.75
2022-09-24T01:01:24.758Z,29.48
2022-09-24T01:03:53.488Z,25.60
2022-09-24T01:06:19.947Z,27.88
2022-09-24T01:08:46.932Z,28.20
2022-09-24T01:11:19.493Z,26.27
2022-09-24T01:14:21.199Z,26.50
2022-09-24T01:16:53.752Z,25.60
2022-09-24T01:20:01.504Z,29.13
2022-09-24T01:22:43.401Z,25.38
2022-09-24T01:25:45.188Z,25.73
2022-09-24T01:28:50.580Z,25.92
2022-09-24T01:31:26.248Z,27.10
2022-09-24T01:33:53.389Z,27.40
2022-09-24T01:36:22.035Z,27.55
2022-09-24T01:38:49.969Z,27.95
2022-09-24T01:41:17.545Z,28.63
2022-09-24T01:43:44.671Z,27.55
2022-09-24T01:46:12.875Z,27.25
2022-09-24T01:48:40.401Z,32.10
2022-09-24T01:51:23.628Z,30.83
2022-09-24T01:53:54.847Z,21.73
2022-09-24T01:56:25.534Z,29.65
2022-09-24T01:58:55.777Z,28.50
2022-09-24T02:01:32.527Z,28.77
2022-09-24T02:04:05.699Z,26.35
2022-09-24T02:07:02.266Z,26.17
2022-09-24T02:09:34.311Z,25.63
2022-09-24T02:12:26.485Z,30.33
2022-09-24T02:15:03.935Z,27.35
2022-09-24T02:17:33.590Z,29.15
2022-09-24T02:20:01.696Z,28.15
2022-09-24T02:22:29.796Z,28.05
2022-09-24T02:24:58.427Z,33.67
2022-09-24T02:27:27.909Z,33.15
2022-09-24T02:29:56.048Z,31.35
2022-09-24T02:32:23.556Z,28.75
2022-09-24T02:34:56.736Z,29.55
2022-09-24T02:37:24.607Z,31.27
2022-09-24T02:39:51.389Z,32.92
2022-09-24T02:42:19.291Z,28.55
2022-09-24T02:44:47.422Z,31.73
2022-09-24T02:47:14.366Z,32.78
2022-09-24T02:49:40.939Z,28.83
2022-09-24T02:52:07.503Z,26.73
2022-09-24T02:54:34.271Z,31.17
2022-09-24T02:57:00.741Z,27.80
2022-09-24T02:59:27.209Z,28.58
2022-09-24T03:01:53.802Z,26.17
2022-09-24T03:04:21.735Z,29.52
2022-09-24T03:06:48.206Z,29.10
2022-09-24T03:09:14.807Z,31.45
2022-09-24T03:11:41.306Z,32.20
2022-09-24T03:14:07.865Z,30.13
2022-09-24T03:16:34.586Z,28.85
2022-09-24T03:19:01.136Z,32.13
2022-09-24T03:21:27.593Z,30.02
2022-09-24T03:23:54.062Z,32.42
2022-09-24T03:26:20.622Z,31.52
2022-09-24T03:28:47.094Z,35.00
2022-09-24T03:31:13.981Z,29.70
2022-09-24T03:33:42.955Z,30.13
2022-09-24T03:36:18.898Z,33.53
2022-09-24T03:38:46.559Z,27.13
2022-09-24T03:41:13.295Z,34.47
2022-09-24T03:43:39.797Z,27.88
2022-09-24T03:46:07.339Z,29.95
2022-09-24T03:48:35.981Z,27.90
2022-09-24T03:51:07.741Z,29.35
2022-09-24T03:53:34.222Z,31.33
2022-09-24T03:56:02.387Z,28.23
2022-09-24T03:58:31.596Z,30.55
2022-09-24T04:00:58.415Z,28.65
2022-09-24T04:03:25.230Z,27.65
2022-09-24T04:05:51.870Z,29.63
2022-09-24T04:08:19.523Z,27.08
2022-09-24T04:10:46.713Z,27.52
2022-09-24T04:13:13.299Z,27.08
2022-09-24T04:15:40.901Z,31.40
2022-09-24T04:18:07.392Z,33.10
2022-09-24T04:20:34.686Z,28.10
2022-09-24T04:23:01.441Z,32.70
2022-09-24T04:25:30.603Z,31.02
2022-09-24T04:28:02.756Z,30.20
2022-09-24T04:30:30.333Z,31.30
2022-09-24T04:33:00.720Z,33.60
2022-09-24T04:35:29.797Z,29.40
2022-09-24T04:37:57.263Z,28.77
2022-09-24T04:40:23.807Z,27.85
2022-09-24T04:42:50.416Z,30.90
2022-09-24T04:45:20.101Z,30.35
2022-09-24T04:47:52.460Z,29.80
2022-09-24T04:50:19.693Z,29.50
2022-09-24T04:52:46.211Z,26.85
2022-09-24T04:55:12.752Z,27.90
2022-09-24T04:57:41.106Z,28.08
2022-09-24T05:00:11.276Z,26.33
2022-09-24T05:02:37.832Z,27.13
2022-09-24T05:05:04.554Z,26.98
2022-09-24T05:07:31.047Z,28.08
2022-09-24T05:09:57.622Z,32.00
2022-09-24T05:12:24.089Z,30.02
2022-09-24T05:14:50.558Z,28.65
2022-09-24T05:17:17.014Z,30.80
2022-09-24T05:19:43.640Z,27.15
2022-09-24T05:22:10.195Z,28.25
2022-09-24T05:24:36.656Z,26.48
2022-09-24T05:27:09.708Z,30.70
2022-09-24T05:29:40.273Z,19.20
2022-09-24T05:32:08.391Z,29.77
2022-09-24T05:34:35.035Z,28.83
2022-09-24T05:37:02.199Z,30.77
2022-09-24T05:39:33.663Z,27.75
2022-09-24T05:42:03.617Z,31.40
2022-09-24T05:44:31.134Z,30.20
2022-09-24T05:46:57.812Z,30.30
2022-09-24T05:49:24.556Z,28.60
2022-09-24T05:51:51.449Z,29.60
2022-09-24T05:54:19.037Z,29.10
2022-09-24T05:56:46.105Z,32.65
2022-09-24T05:59:13.117Z,28.15
2022-09-24T06:01:39.677Z,28.23
2022-09-24T06:04:08.820Z,26.23
2022-09-24T06:06:35.811Z,26.60
2022-09-24T06:09:02.309Z,32.25
2022-09-24T06:11:39.039Z,31.98
2022-09-24T06:14:06.815Z,32.70
2022-09-24T06:16:34.330Z,29.10
2022-09-24T06:19:01.222Z,28.60
2022-09-24T06:21:27.755Z,28.13
2022-09-24T06:23:54.212Z,31.00
2022-09-24T06:26:20.732Z,32.10
2022-09-24T06:28:47.214Z,29.08
2022-09-24T06:31:13.822Z,31.45
2022-09-24T06:33:40.923Z,28.75
2022-09-24T06:36:07.574Z,27.52
2022-09-24T06:38:35.290Z,26.85
2022-09-24T06:41:03.592Z,28.67
2022-09-24T06:43:30.828Z,28.45
2022-09-24T06:45:58.319Z,29.42
2022-09-24T06:48:24.824Z,24.92
2022-09-24T06:50:51.518Z,26.58
2022-09-24T06:53:18.594Z,26.38
2022-09-24T06:55:50.926Z,25.83
2022-09-24T06:58:20.997Z,25.48
2022-09-24T07:00:58.224Z,27.33
2022-09-24T07:03:27.071Z,25.85
2022-09-24T07:05:53.589Z,26.50
2022-09-24T07:08:20.066Z,27.55
2022-09-24T07:10:49.097Z,26.15
2022-09-24T07:13:16.149Z,27.85
2022-09-24T07:15:43.258Z,27.80
2022-09-24T07:18:10.197Z,27.27
2022-09-24T07:20:36.972Z,28.65
2022-09-24T07:23:07.730Z,26.75
2022-09-24T07:25:34.221Z,29.88
2022-09-24T07:28:05.889Z,29.77
2022-09-24T07:30:33.537Z,31.00
2022-09-24T07:33:00.217Z,30.27
2022-09-24T07:35:27.752Z,30.00
2022-09-24T07:38:01.840Z,29.58
2022-09-24T07:40:29.247Z,29.67
2022-09-24T07:42:55.894Z,31.80
2022-09-24T07:45:23.565Z,31.10
2022-09-24T07:48:03.764Z,32.22
2022-09-24T07:50:32.307Z,33.58
2022-09-24T07:52:59.244Z,33.03
2022-09-24T07:55:27.190Z,37.33
2022-09-24T07:57:55.038Z,32.00
2022-09-24T08:00:23.428Z,33.58
2022-09-24T08:02:53.790Z,39.33
2022-09-24T08:05:20.421Z,33.47
2022-09-24T08:07:53.755Z,35.15
2022-09-24T08:10:20.322Z,36.45
2022-09-24T08:12:57.096Z,39.00
2022-09-24T08:15:24.013Z,45.95
2022-09-24T08:17:51.131Z,40.53
2022-09-24T08:20:17.729Z,41.40
2022-09-24T08:22:44.223Z,40.78
2022-09-24T08:25:10.758Z,37.70
2022-09-24T08:27:37.458Z,39.50
2022-09-24T08:30:05.388Z,38.55
2022-09-24T08:32:31.983Z,39.15
2022-09-24T08:34:58.570Z,39.38
2022-09-24T08:37:25.246Z,38.80
2022-09-24T08:39:51.821Z,38.17
2022-09-24T08:42:42.242Z,38.35
2022-09-24T08:45:28.918Z,36.03
2022-09-24T08:48:00.299Z,36.72
2022-09-24T08:50:34.266Z,38.13
2022-09-24T08:53:21.230Z,37.92
2022-09-24T08:55:49.995Z,37.13
2022-09-24T08:58:44.774Z,38.03
2022-09-24T09:01:11.400Z,37.63
2022-09-24T09:03:48.117Z,36.92
2022-09-24T09:06:42.011Z,36.55
2022-09-24T09:09:15.146Z,36.47
2022-09-24T09:11:47.118Z,38.08
2022-09-24T09:14:43.165Z,38.60
2022-09-24T09:17:48.047Z,37.20
2022-09-24T09:20:19.395Z,40.33
2022-09-24T09:22:50.980Z,38.53
2022-09-24T09:25:19.847Z,38.63
2022-09-24T09:27:51.273Z,38.88
2022-09-24T09:30:20.646Z,36.88
2022-09-24T09:33:05.099Z,39.67
2022-09-24T09:35:38.063Z,38.42
2022-09-24T09:38:11.440Z,38.53
2022-09-24T09:40:45.576Z,39.80
2022-09-24T09:43:13.560Z,39.58
2022-09-24T09:46:07.651Z,37.13
2022-09-24T09:51:22.604Z,34.55
2022-09-24T09:53:58.042Z,33.50
2022-09-24T09:56:28.016Z,35.33
2022-09-24T09:59:03.566Z,33.55
2022-09-24T10:01:35.104Z,33.70
2022-09-24T10:04:03.055Z,33.25
2022-09-24T10:06:31.910Z,35.50
2022-09-24T10:09:12.750Z,31.83
2022-09-24T10:11:39.337Z,32.85
2022-09-24T10:14:08.819Z,29.98
2022-09-24T10:16:40.474Z,30.13
2022-09-24T10:19:16.101Z,30.10
2022-09-24T10:21:42.781Z,29.92
2022-09-24T10:24:21.307Z,28.15
2022-09-24T10:26:47.954Z,27.92
2022-09-24T10:29:49.808Z,27.60
2022-09-24T10:32:18.167Z,27.15
2022-09-24T10:35:00.928Z,26.13
2022-09-24T10:37:28.047Z,24.98
2022-09-24T10:40:03.410Z,24.27
2022-09-24T10:42:30.554Z,25.65
2022-09-24T10:45:01.108Z,24.40
2022-09-24T10:47:52.569Z,22.90
2022-09-24T10:51:00.258Z,22.42
2022-09-24T10:53:49.846Z,22.08
2022-09-24T10:56:38.186Z,20.00
2022-09-24T10:59:18.271Z,20.65
2022-09-24T11:01:51.625Z,20.90
2022-09-24T11:04:24.116Z,18.92
2022-09-24T11:07:45.685Z,18.35
2022-09-24T11:10:16.220Z,16.30
2022-09-24T11:13:10.449Z,16.00
2022-09-24T11:18:46.795Z,12.75
2022-09-24T11:21:19.432Z,11.90
2022-09-24T11:24:07.949Z,12.45
2022-09-24T11:27:17.745Z,11.85
2022-09-24T11:29:55.132Z,12.00
2022-09-24T11:32:31.147Z,11.02
2022-09-24T11:35:19.358Z,11.15
2022-09-24T11:38:07.708Z,9.75
2022-09-24T11:40:53.069Z,10.18
2022-09-24T11:43:37.484Z,9.77
2022-09-24T11:46:22.308Z,8.73
2022-09-24T11:49:09.452Z,9.15
2022-09-24T11:51:54.616Z,9.60
2022-09-24T11:54:30.409Z,8.90
2022-09-24T11:57:03.019Z,7.72
2022-09-24T11:59:42.486Z,8.68
2022-09-24T12:02:23.913Z,7.38
2022-09-24T12:05:03.762Z,6.90
2022-09-24T12:07:39.663Z,6.50
2022-09-24T12:10:26.043Z,7.50
2022-09-24T12:12:54.641Z,7.13
2022-09-24T12:15:27.779Z,6.55
2022-09-24T12:18:17.303Z,6.90
2022-09-24T12:20:49.693Z,6.10
2022-09-24T12:23:20.702Z,5.95
2022-09-24T12:25:49.318Z,4.93
2022-09-24T12:28:37.291Z,6.43
2022-09-24T12:31:31.839Z,6.72
2022-09-24T12:34:21.778Z,6.82
2022-09-24T12:36:57.896Z,5.22
2022-09-24T12:39:38.777Z,5.45
2022-09-24T12:42:08.296Z,5.82
2022-09-24T12:44:37.300Z,5.35
2022-09-24T12:47:04.196Z,5.30
2022-09-24T12:49:34.310Z,4.30
2022-09-24T12:52:17.023Z,4.32
2022-09-24T12:54:44.371Z,3.95
2022-09-24T12:57:21.301Z,3.67
2022-09-24T13:00:01.825Z,3.45
2022-09-24T13:02:50.797Z,3.33
2022-09-24T13:05:27.731Z,3.75
2022-09-24T13:07:59.046Z,4.10
2022-09-24T13:10:27.451Z,3.72
2022-09-24T13:12:54.302Z,3.92
2022-09-24T13:15:28.690Z,3.72
2022-09-24T13:18:11.094Z,3.70
2022-09-24T13:20:46.151Z,3.60
2022-09-24T13:23:19.963Z,4.00
2022-09-24T13:25:59.991Z,4.10
2022-09-24T13:28:37.740Z,3.70
2022-09-24T13:31:22.489Z,3.58
2022-09-24T13:33:55.009Z,4.22
2022-09-24T13:36:49.689Z,3.25
2022-09-24T13:39:28.008Z,4.28
2022-09-24T13:42:16.444Z,3.97
2022-09-24T13:44:45.758Z,3.35
2022-09-24T13:47:33.520Z,3.40
2022-09-24T13:50:09.322Z,3.10
2022-09-24T13:52:40.740Z,3.22
2022-09-24T13:55:35.065Z,3.22
2022-09-24T13:58:01.560Z,3.85
2022-09-24T14:00:29.472Z,3.13
2022-09-24T14:03:19.538Z,3.63
2022-09-24T14:05:46.209Z,3.03
2022-09-24T14:08:14.668Z,3.13
2022-09-24T14:10:41.818Z,2.95
2022-09-24T14:13:21.609Z,2.70
2022-09-24T14:15:51.436Z,2.83
2022-09-24T14:18:20.351Z,3.13
2022-09-24T14:20:53.854Z,3.15
2022-09-24T14:23:24.093Z,2.92
2022-09-24T14:25:51.870Z,2.78
2022-09-24T14:28:19.286Z,2.50
2022-09-24T14:30:54.479Z,2.78
2022-09-24T14:33:25.827Z,2.53
2022-09-24T14:35:54.438Z,2.60
2022-09-24T14:38:26.471Z,2.42
2022-09-24T14:40:56.703Z,2.47
2022-09-24T14:43:43.300Z,2.42
2022-09-24T14:46:30.808Z,2.20
2022-09-24T14:49:27.672Z,2.33
2022-09-24T14:52:01.816Z,1.80
2022-09-24T14:54:42.964Z,2.38
2022-09-24T14:57:27.449Z,2.10
2022-09-24T14:59:53.945Z,2.60
2022-09-24T15:02:33.465Z,2.50
2022-09-24T15:05:06.127Z,2.35
2022-09-24T15:07:34.423Z,2.40
2022-09-24T15:10:02.654Z,2.60
2022-09-24T15:12:34.317Z,2.20
2022-09-24T15:15:17.347Z,1.98
2022-09-24T15:17:47.052Z,1.63
2022-09-24T15:20:14.005Z,2.38
2022-09-24T15:22:40.490Z,2.58
2022-09-24T15:25:07.468Z,2.35
2022-09-24T15:27:37.960Z,1.90
2022-09-24T15:30:07.913Z,1.85
2022-09-24T15:32:35.884Z,1.58
2022-09-24T15:35:07.555Z,1.75
2022-09-24T15:37:34.383Z,1.90
2022-09-24T15:40:30.785Z,2.00
2022-09-24T15:42:57.407Z,2.08
2022-09-24T15:45:24.994Z,1.80
2022-09-24T15:47:53.515Z,1.85
2022-09-24T15:50:21.233Z,2.40
2022-09-24T15:52:54.401Z,2.22
2022-09-24T15:55:22.241Z,2.38
2022-09-24T15:57:48.729Z,2.20
2022-09-24T16:00:20.959Z,2.40
2022-09-24T16:02:52.442Z,1.98
2022-09-24T16:05:19.047Z,2.20
2022-09-24T16:07:45.579Z,2.50
2022-09-24T16:10:13.774Z,2.08
2022-09-24T16:12:41.283Z,2.30
2022-09-24T16:15:08.356Z,2.45
2022-09-24T16:17:34.931Z,2.45
2022-09-24T16:20:01.881Z,2.35
2022-09-24T16:22:28.367Z,2.47
2022-09-24T16:24:54.819Z,2.20
2022-09-24T16:27:21.267Z,2.42
2022-09-24T16:29:47.813Z,2.30
2022-09-24T16:32:14.439Z,1.92
2022-09-24T16:34:41.102Z,2.25
2022-09-24T16:37:08.468Z,2.00
2022-09-24T16:39:34.933Z,2.10
2022-09-24T16:42:01.723Z,2.05
2022-09-24T16:44:28.259Z,2.05
2022-09-24T16:46:54.790Z,1.92
2022-09-24T16:49:22.924Z,1.73
2022-09-24T16:51:49.428Z,1.70
2022-09-24T16:54:15.972Z,2.33
2022-09-24T16:56:42.564Z,1.63
2022-09-24T16:59:10.362Z,1.80
2022-09-24T17:01:36.948Z,1.88
2022-09-24T17:04:03.418Z,1.85
2022-09-24T17:06:30.906Z,2.00
2022-09-24T17:09:16.408Z,1.80
2022-09-24T17:11:42.985Z,1.65
2022-09-24T17:14:12.200Z,1.60
2022-09-24T17:16:39.724Z,1.42
2022-09-24T17:19:07.919Z,1.73
2022-09-24T17:21:36.124Z,1.70
2022-09-24T17:24:02.896Z,1.40
2022-09-24T17:26:29.384Z,1.60
2022-09-24T17:28:57.031Z,1.45
2022-09-24T17:31:25.236Z,1.67
2022-09-24T17:34:03.270Z,1.73
2022-09-24T17:36:31.699Z,1.90
2022-09-24T17:38:59.332Z,1.60
2022-09-24T17:41:26.248Z,2.25
2022-09-24T17:43:52.727Z,1.80
2022-09-24T17:46:22.213Z,1.63
2022-09-24T17:48:54.559Z,1.67
2022-09-24T17:51:26.616Z,1.70
2022-09-24T17:53:54.848Z,1.90
2022-09-24T17:56:23.504Z,2.38
2022-09-24T17:58:50.324Z,2.20
2022-09-24T18:01:25.392Z,2.00
2022-09-24T18:03:56.682Z,2.22
2022-09-24T18:06:28.121Z,2.10
2022-09-24T18:08:57.398Z,1.95
2022-09-24T18:11:26.040Z,1.90
2022-09-24T18:13:54.163Z,2.17
2022-09-24T18:16:22.376Z,1.67
2022-09-24T18:18:51.771Z,1.98
2022-09-24T18:21:21.770Z,1.83
2022-09-24T18:23:48.560Z,2.05
2022-09-24T18:26:19.811Z,2.20
2022-09-24T18:28:46.219Z,2.10
2022-09-24T18:31:13.086Z,2.20
2022-09-24T18:33:43.533Z,2.05
2022-09-24T18:36:15.322Z,2.00
2022-09-24T18:38:44.199Z,2.28
2022-09-24T18:41:24.121Z,2.22
2022-09-24T18:43:52.250Z,2.03
2022-09-24T18:46:21.489Z,1.75
2022-09-24T18:48:50.976Z,2.13
2022-09-24T18:51:26.477Z,2.05
2022-09-24T18:53:57.029Z,1.80
2022-09-24T18:56:24.219Z,1.67
2022-09-24T18:59:09.469Z,2.00
2022-09-24T19:01:36.907Z,2.10
2022-09-24T19:04:03.747Z,2.33
2022-09-24T19:06:30.840Z,2.45
2022-09-24T19:08:57.348Z,2.60
2022-09-24T19:11:23.933Z,2.20
2022-09-24T19:13:52.805Z,2.67
2022-09-24T19:16:23.571Z,2.20
2022-09-24T19:18:51.644Z,2.15
2022-09-24T19:21:18.437Z,1.88
2022-09-24T19:23:47.376Z,1.95
2022-09-24T19:26:17.681Z,1.95
2022-09-24T19:28:45.021Z,2.05
2022-09-24T19:31:17.075Z,2.15
2022-09-24T19:33:44.133Z,2.20
2022-09-24T19:36:11.206Z,1.52
2022-09-24T19:38:37.898Z,2.15
2022-09-24T19:41:06.944Z,2.13
2022-09-24T19:43:34.275Z,1.77
2022-09-24T19:46:05.971Z,2.10
2022-09-24T19:48:37.400Z,1.80
2022-09-24T19:51:13.209Z,1.50
2022-09-24T19:53:42.751Z,1.90
2022-09-24T19:56:10.881Z,1.90
2022-09-24T19:58:37.470Z,1.58
2022-09-24T20:01:05.955Z,2.00
2022-09-24T20:03:33.689Z,2.10
2022-09-24T20:06:00.555Z,2.22
2022-09-24T20:08:27.242Z,2.08
2022-09-24T20:10:54.027Z,1.70
2022-09-24T20:13:20.973Z,1.83
2022-09-24T20:15:57.672Z,1.80
2022-09-24T20:18:24.223Z,2.20
2022-09-24T20:20:53.484Z,1.60
2022-09-24T20:23:21.003Z,2.00
2022-09-24T20:26:09.896Z,1.95
2022-09-24T20:28:39.764Z,2.20
2022-09-24T20:31:19.790Z,2.03
2022-09-24T20:33:47.678Z,2.30
2022-09-24T20:36:16.679Z,1.85
2022-09-24T20:38:46.188Z,1.80
2022-09-24T20:41:15.223Z,2.03
2022-09-24T20:43:41.692Z,2.38
2022-09-24T20:46:10.461Z,2.10
2022-09-24T20:48:37.301Z,1.92
2022-09-24T20:51:14.498Z,2.45
2022-09-24T20:53:41.874Z,1.95
2022-09-24T20:56:09.170Z,1.90
2022-09-24T20:58:36.700Z,1.80
2022-09-24T21:01:04.493Z,2.22
2022-09-24T21:03:43.993Z,1.65
2022-09-24T21:06:12.330Z,2.13
2022-09-24T21:08:43.167Z,1.98
2022-09-24T21:11:11.645Z,2.05
2022-09-24T21:13:44.586Z,1.75
2022-09-24T21:16:11.749Z,1.75
2022-09-24T21:18:40.678Z,1.70
2022-09-24T21:21:11.510Z,1.83
2022-09-24T21:23:39.544Z,1.88
2022-09-24T21:26:14.392Z,1.77
2022-09-24T21:28:43.156Z,2.00
2022-09-24T21:31:10.208Z,1.98
2022-09-24T21:33:36.980Z,1.85
2022-09-24T21:36:05.750Z,2.05
2022-09-24T21:38:32.563Z,2.00
2022-09-24T21:41:01.184Z,1.90
2022-09-24T21:43:32.361Z,1.80
2022-09-24T21:46:03.998Z,1.80
2022-09-24T21:48:37.271Z,1.70
2022-09-24T21:51:05.449Z,2.05
2022-09-24T21:53:33.354Z,1.50
2022-09-24T21:55:59.912Z,1.58
2022-09-24T21:58:26.552Z,1.67
2022-09-24T22:00:53.523Z,2.00
2022-09-24T22:03:20.867Z,1.70
2022-09-24T22:05:48.200Z,2.03
2022-09-24T22:08:15.434Z,1.70
2022-09-24T22:10:44.306Z,2.28
2022-09-24T22:13:16.355Z,1.70
2022-09-24T22:15:45.626Z,1.75
2022-09-24T22:18:12.082Z,2.15
2022-09-24T22:20:43.398Z,1.90
2022-09-24T22:23:10.636Z,1.88
2022-09-24T22:25:37.768Z,1.83
2022-09-24T22:28:04.564Z,2.78
2022-09-24T22:30:31.316Z,1.77
2022-09-24T22:32:57.958Z,1.90
2022-09-24T22:35:43.709Z,1.98
2022-09-24T22:38:10.196Z,1.70
2022-09-24T22:40:36.739Z,1.98
2022-09-24T22:43:03.236Z,1.60
2022-09-24T22:45:29.711Z,2.00
2022-09-24T22:47:56.695Z,1.70
2022-09-24T22:50:23.191Z,2.00
2022-09-24T22:52:50.154Z,1.92
2022-09-24T22:55:16.752Z,1.80
2022-09-24T22:57:43.227Z,1.92
2022-09-24T23:00:10.203Z,2.03
2022-09-24T23:02:36.651Z,2.03
2022-09-24T23:05:03.376Z,2.00
2022-09-24T23:07:29.906Z,1.83
2022-09-24T23:09:56.386Z,2.00
2022-09-24T23:12:22.896Z,2.00
2022-09-24T23:14:52.439Z,2.03
2022-09-24T23:17:20.241Z,2.13
2022-09-24T23:19:49.523Z,1.80
2022-09-24T23:22:17.067Z,2.10
2022-09-24T23:24:44.041Z,2.00
2022-09-24T23:27:10.593Z,2.50
2022-09-24T23:29:37.477Z,2.38
2022-09-24T23:32:04.350Z,2.60
2022-09-24T23:34:30.854Z,2.25
2022-09-24T23:36:57.334Z,2.60
2022-09-24T23:39:23.844Z,2.25
2022-09-24T23:41:50.763Z,2.42
2022-09-24T23:44:17.252Z,2.42
2022-09-24T23:46:44.053Z,2.40
2022-09-24T23:49:11.091Z,2.63
2022-09-24T23:51:37.631Z,3.20
2022-09-24T23:54:04.370Z,2.72
2022-09-24T23:56:31.383Z,2.88
2022-09-24T23:58:57.926Z,2.80
